Hatsu Envoy — VSQL9 — position and weather

sailwx.info

Track history (hours):
 
Tides and Currents Weather Stations Pressure Air Temp Water Temp Dewpoint Dewpoint Depression Visibility Wind Speed Wind Dir Waves Ship Positions

Hatsu Envoy

Last reported at 2014-Dec-06 01:25 UTC. Time now 2014-Dec-21 08:34 UTC.
Position N 31°20' E 032°23'.
Warning: this ship's position is 15 days out of date.

Type: Ship (hazmat cat D). MMSI: 235414000.

Date/timePositionNaut miles runAvg speedWind from/ knotsBaromVisibWave heightAir tempDewpointWater temp
2014-Dec-06 01:25N 31°20' E 032°23'6 2.8
2014-Dec-05 23:22N 31°24' E 032°17'0 0.0
2014-Dec-05 22:25N 31°24' E 032°17'0 0.0
2014-Dec-05 19:19N 31°23' E 032°17'1 0.2
2014-Dec-05 15:33N 31°24' E 032°18'1411.7
2014-Dec-05 14:21N 31°36' E 032°08'1416.2
2014-Dec-05 13:28N 31°46' E 031°56'1516.6
2014-Dec-05 12:33N 31°55' E 031°42'1917.2
2014-Dec-05 11:29N 32°07' E 031°25'1617.0
2014-Dec-05 10:33N 32°17' E 031°11'1716.9
2014-Dec-05 09:32N 32°27' E 030°54'1717.3
2014-Dec-05 08:33N 32°38' E 030°39'9617.9
2014-Dec-05 03:09N 33°38' E 029°09'1218.3
2014-Dec-05 02:32N 33°46' E 028°58'16417.7
2014-Dec-04 17:15N 35°27' E 026°22'1217.4
2014-Dec-04 16:33N 35°34' E 026°10'1817.5
2014-Dec-04 15:33N 35°43' E 025°52'1817.8
2014-Dec-04 14:33N 35°53' E 025°33'1817.7
2014-Dec-04 13:33N 36°03' E 025°15'1817.8
2014-Dec-04 12:33N 36°13' E 024°57'1817.6
2014-Dec-04 11:33N 36°22' E 024°39'1717.5
2014-Dec-04 10:33N 36°32' E 024°21'1717.1
2014-Dec-04 09:33N 36°45' E 024°07'1818.0
2014-Dec-04 08:33N 37°02' E 023°59'1817.9
2014-Dec-04 07:33N 37°18' E 023°51'1717.4
2014-Dec-04 06:33N 37°35' E 023°44'1717.0
2014-Dec-04 05:33N 37°51' E 023°37'6 3.0
2014-Dec-04 03:31N 37°57' E 023°35'0 0.0
2014-Dec-04 00:34N 37°57' E 023°35'0 0.0
2014-Dec-03 23:34N 37°57' E 023°35'0 0.0
2014-Dec-03 22:34N 37°57' E 023°35'0 0.0
2014-Dec-03 21:31N 37°57' E 023°35'0 0.0
2014-Dec-03 20:31N 37°57' E 023°35'0 0.0
2014-Dec-03 19:31N 37°57' E 023°35'0 0.0
2014-Dec-03 18:34N 37°57' E 023°35'0 0.0
2014-Dec-03 17:34N 37°57' E 023°35'0 0.0
2014-Dec-03 16:33N 37°57' E 023°35'0 0.0
2014-Dec-03 15:33N 37°57' E 023°35'0 0.0
2014-Dec-03 14:33N 37°57' E 023°35'0 0.0
2014-Dec-03 13:33N 37°57' E 023°35'0 0.0
2014-Dec-03 12:33N 37°57' E 023°35'0 0.0
2014-Dec-03 11:33N 37°57' E 023°35'0 0.0
2014-Dec-03 10:33N 37°57' E 023°35'0 0.0
2014-Dec-03 09:33N 37°57' E 023°35'0 0.0
2014-Dec-03 08:33N 37°57' E 023°35'0 0.0
2014-Dec-03 07:33N 37°57' E 023°35'0 0.0
2014-Dec-03 06:33N 37°57' E 023°35'0 0.0
2014-Dec-03 05:33N 37°57' E 023°35'3 2.8
2014-Dec-03 04:33N 37°55' E 023°36'2 2.3
2014-Dec-03 03:33N 37°53' E 023°39'1 0.7
2014-Dec-03 02:33N 37°53' E 023°40'9 9.0
2014-Dec-03 01:33N 37°45' E 023°43'1716.9
2014-Dec-03 00:33N 37°28' E 023°46'2317.7
2014-Dec-02 23:16N 37°05' E 023°46'1217.6
2014-Dec-02 22:33N 36°53' E 023°45'  
2014-Nov-26 11:10N 36°38' E 023°40'1113.8
2014-Nov-26 10:22N 36°48' E 023°45'1113.8
2014-Nov-26 09:33N 36°60' E 023°45'3013.5
2014-Nov-26 07:20N 37°29' E 023°45'1013.5
2014-Nov-26 06:33N 37°40' E 023°42'1313.2
2014-Nov-26 05:33N 37°52' E 023°37'5 5.0
2014-Nov-26 04:31N 37°57' E 023°35'0 0.0
2014-Nov-26 03:31N 37°57' E 023°35'0 0.0
2014-Nov-26 02:33N 37°57' E 023°35'0 0.0
2014-Nov-26 01:33N 37°57' E 023°35'  
Track history (hours):
 
Tides and Currents Weather Stations Pressure Air Temp Water Temp Dewpoint Dewpoint Depression Visibility Wind Speed Wind Dir Waves Ship Positions

Hatsu Envoy

Last reported at 2014-Dec-06 01:25 UTC. Time now 2014-Dec-21 08:34 UTC.
Position N 31°20' E 032°23'.
Warning: this ship's position is 15 days out of date.

Type: Ship (hazmat cat D). MMSI: 235414000.

Date/timePositionNaut miles runAvg speedWind from/ knotsBaromVisibWave heightAir tempDewpointWater temp
2014-Dec-06 01:25N 31°20' E 032°23'6 2.8
2014-Dec-05 23:22N 31°24' E 032°17'0 0.0
2014-Dec-05 22:25N 31°24' E 032°17'0 0.0
2014-Dec-05 19:19N 31°23' E 032°17'1 0.2
2014-Dec-05 15:33N 31°24' E 032°18'1411.7
2014-Dec-05 14:21N 31°36' E 032°08'1416.2
2014-Dec-05 13:28N 31°46' E 031°56'1516.6
2014-Dec-05 12:33N 31°55' E 031°42'1917.2
2014-Dec-05 11:29N 32°07' E 031°25'1617.0
2014-Dec-05 10:33N 32°17' E 031°11'1716.9
2014-Dec-05 09:32N 32°27' E 030°54'1717.3
2014-Dec-05 08:33N 32°38' E 030°39'9617.9
2014-Dec-05 03:09N 33°38' E 029°09'1218.3
2014-Dec-05 02:32N 33°46' E 028°58'16417.7
2014-Dec-04 17:15N 35°27' E 026°22'1217.4
2014-Dec-04 16:33N 35°34' E 026°10'1817.5
2014-Dec-04 15:33N 35°43' E 025°52'1817.8
2014-Dec-04 14:33N 35°53' E 025°33'1817.7
2014-Dec-04 13:33N 36°03' E 025°15'1817.8
2014-Dec-04 12:33N 36°13' E 024°57'1817.6
2014-Dec-04 11:33N 36°22' E 024°39'1717.5
2014-Dec-04 10:33N 36°32' E 024°21'1717.1
2014-Dec-04 09:33N 36°45' E 024°07'1818.0
2014-Dec-04 08:33N 37°02' E 023°59'1817.9
2014-Dec-04 07:33N 37°18' E 023°51'1717.4
2014-Dec-04 06:33N 37°35' E 023°44'1717.0
2014-Dec-04 05:33N 37°51' E 023°37'6 3.0
2014-Dec-04 03:31N 37°57' E 023°35'0 0.0
2014-Dec-04 00:34N 37°57' E 023°35'0 0.0
2014-Dec-03 23:34N 37°57' E 023°35'0 0.0
2014-Dec-03 22:34N 37°57' E 023°35'0 0.0
2014-Dec-03 21:31N 37°57' E 023°35'0 0.0
2014-Dec-03 20:31N 37°57' E 023°35'0 0.0
2014-Dec-03 19:31N 37°57' E 023°35'0 0.0
2014-Dec-03 18:34N 37°57' E 023°35'0 0.0
2014-Dec-03 17:34N 37°57' E 023°35'0 0.0
2014-Dec-03 16:33N 37°57' E 023°35'0 0.0
2014-Dec-03 15:33N 37°57' E 023°35'0 0.0
2014-Dec-03 14:33N 37°57' E 023°35'0 0.0
2014-Dec-03 13:33N 37°57' E 023°35'0 0.0
2014-Dec-03 12:33N 37°57' E 023°35'0 0.0
2014-Dec-03 11:33N 37°57' E 023°35'0 0.0
2014-Dec-03 10:33N 37°57' E 023°35'0 0.0
2014-Dec-03 09:33N 37°57' E 023°35'0 0.0
2014-Dec-03 08:33N 37°57' E 023°35'0 0.0
2014-Dec-03 07:33N 37°57' E 023°35'0 0.0
2014-Dec-03 06:33N 37°57' E 023°35'0 0.0
2014-Dec-03 05:33N 37°57' E 023°35'3 2.8
2014-Dec-03 04:33N 37°55' E 023°36'2 2.3
2014-Dec-03 03:33N 37°53' E 023°39'1 0.7
2014-Dec-03 02:33N 37°53' E 023°40'9 9.0
2014-Dec-03 01:33N 37°45' E 023°43'1716.9
2014-Dec-03 00:33N 37°28' E 023°46'2317.7
2014-Dec-02 23:16N 37°05' E 023°46'1217.6
2014-Dec-02 22:33N 36°53' E 023°45'  
2014-Nov-26 11:10N 36°38' E 023°40'1113.8
2014-Nov-26 10:22N 36°48' E 023°45'1113.8
2014-Nov-26 09:33N 36°60' E 023°45'3013.5
2014-Nov-26 07:20N 37°29' E 023°45'1013.5
2014-Nov-26 06:33N 37°40' E 023°42'1313.2
2014-Nov-26 05:33N 37°52' E 023°37'5 5.0
2014-Nov-26 04:31N 37°57' E 023°35'0 0.0
2014-Nov-26 03:31N 37°57' E 023°35'0 0.0
2014-Nov-26 02:33N 37°57' E 023°35'0 0.0
2014-Nov-26 01:33N 37°57' E 023°35'  

Dump ship's entire track history